sensor_id;sensor_type;location;lat;lon;timestamp;P1;durP1;ratioP1;P2;durP2;ratioP2
489;SDS011;231;48.120;11.576;2022-08-01T00:00:31;4.17;;;3.93;;
489;SDS011;231;48.120;11.576;2022-08-01T00:02:58;3.67;;;3.47;;
489;SDS011;231;48.120;11.576;2022-08-01T00:05:25;4.23;;;3.97;;
489;SDS011;231;48.120;11.576;2022-08-01T00:07:53;5.00;;;4.70;;
489;SDS011;231;48.120;11.576;2022-08-01T00:10:20;5.03;;;4.73;;
489;SDS011;231;48.120;11.576;2022-08-01T00:12:49;4.43;;;4.13;;
489;SDS011;231;48.120;11.576;2022-08-01T00:15:16;5.60;;;5.30;;
489;SDS011;231;48.120;11.576;2022-08-01T00:17:43;5.13;;;4.83;;
489;SDS011;231;48.120;11.576;2022-08-01T00:20:12;6.23;;;5.90;;
489;SDS011;231;48.120;11.576;2022-08-01T00:22:41;4.90;;;4.60;;
489;SDS011;231;48.120;11.576;2022-08-01T00:25:08;3.87;;;3.67;;
489;SDS011;231;48.120;11.576;2022-08-01T00:27:35;3.63;;;3.43;;
489;SDS011;231;48.120;11.576;2022-08-01T00:30:04;4.47;;;4.17;;
489;SDS011;231;48.120;11.576;2022-08-01T00:32:32;4.63;;;4.07;;
489;SDS011;231;48.120;11.576;2022-08-01T00:34:59;4.50;;;4.20;;
489;SDS011;231;48.120;11.576;2022-08-01T00:37:26;4.50;;;4.20;;
489;SDS011;231;48.120;11.576;2022-08-01T00:39:53;5.13;;;3.80;;
489;SDS011;231;48.120;11.576;2022-08-01T00:42:20;3.97;;;3.77;;
489;SDS011;231;48.120;11.576;2022-08-01T00:44:47;7.90;;;7.50;;
489;SDS011;231;48.120;11.576;2022-08-01T00:47:15;6.70;;;6.30;;
489;SDS011;231;48.120;11.576;2022-08-01T00:49:42;4.73;;;4.43;;
489;SDS011;231;48.120;11.576;2022-08-01T00:52:09;5.60;;;5.30;;
489;SDS011;231;48.120;11.576;2022-08-01T00:54:37;5.30;;;4.40;;
489;SDS011;231;48.120;11.576;2022-08-01T00:57:05;3.23;;;3.03;;
489;SDS011;231;48.120;11.576;2022-08-01T00:59:32;4.30;;;4.00;;
489;SDS011;231;48.120;11.576;2022-08-01T01:02:00;6.10;;;4.13;;
489;SDS011;231;48.120;11.576;2022-08-01T01:04:29;4.13;;;3.90;;
489;SDS011;231;48.120;11.576;2022-08-01T01:06:57;3.80;;;3.60;;
489;SDS011;231;48.120;11.576;2022-08-01T01:09:33;4.83;;;3.67;;
489;SDS011;231;48.120;11.576;2022-08-01T01:12:08;4.13;;;3.90;;
489;SDS011;231;48.120;11.576;2022-08-01T01:14:44;4.93;;;3.67;;
489;SDS011;231;48.120;11.576;2022-08-01T01:17:17;5.53;;;4.00;;
489;SDS011;231;48.120;11.576;2022-08-01T01:19:51;3.00;;;2.80;;
489;SDS011;231;48.120;11.576;2022-08-01T01:22:24;3.30;;;3.10;;
489;SDS011;231;48.120;11.576;2022-08-01T01:25:09;5.83;;;3.30;;
489;SDS011;231;48.120;11.576;2022-08-01T01:27:50;4.37;;;3.33;;
489;SDS011;231;48.120;11.576;2022-08-01T01:30:26;3.60;;;3.40;;
489;SDS011;231;48.120;11.576;2022-08-01T01:32:58;3.57;;;3.37;;
489;SDS011;231;48.120;11.576;2022-08-01T01:35:29;4.07;;;3.87;;
489;SDS011;231;48.120;11.576;2022-08-01T01:38:00;4.03;;;3.83;;
489;SDS011;231;48.120;11.576;2022-08-01T01:40:30;4.07;;;3.83;;
489;SDS011;231;48.120;11.576;2022-08-01T01:42:59;3.37;;;3.17;;
489;SDS011;231;48.120;11.576;2022-08-01T01:45:27;4.03;;;3.87;;
489;SDS011;231;48.120;11.576;2022-08-01T01:47:55;3.97;;;3.77;;
489;SDS011;231;48.120;11.576;2022-08-01T01:50:24;3.30;;;3.10;;
489;SDS011;231;48.120;11.576;2022-08-01T01:52:52;3.30;;;3.10;;
489;SDS011;231;48.120;11.576;2022-08-01T01:55:21;3.27;;;3.07;;
489;SDS011;231;48.120;11.576;2022-08-01T01:57:51;3.40;;;3.20;;
489;SDS011;231;48.120;11.576;2022-08-01T02:00:20;3.70;;;3.50;;
489;SDS011;231;48.120;11.576;2022-08-01T02:02:50;3.73;;;3.53;;
489;SDS011;231;48.120;11.576;2022-08-01T02:05:19;4.70;;;4.40;;
489;SDS011;231;48.120;11.576;2022-08-01T02:07:47;12.03;;;3.20;;
489;SDS011;231;48.120;11.576;2022-08-01T02:10:15;5.10;;;3.47;;
489;SDS011;231;48.120;11.576;2022-08-01T02:12:43;2.90;;;2.70;;
489;SDS011;231;48.120;11.576;2022-08-01T02:15:12;2.90;;;2.70;;
489;SDS011;231;48.120;11.576;2022-08-01T02:17:41;4.10;;;3.30;;
489;SDS011;231;48.120;11.576;2022-08-01T02:20:12;3.03;;;2.83;;
489;SDS011;231;48.120;11.576;2022-08-01T02:22:40;2.93;;;2.73;;
489;SDS011;231;48.120;11.576;2022-08-01T02:25:11;4.43;;;3.73;;
489;SDS011;231;48.120;11.576;2022-08-01T02:27:43;3.37;;;3.17;;
489;SDS011;231;48.120;11.576;2022-08-01T02:30:16;5.60;;;3.27;;
489;SDS011;231;48.120;11.576;2022-08-01T02:32:46;3.40;;;3.20;;
489;SDS011;231;48.120;11.576;2022-08-01T02:35:22;3.07;;;2.87;;
489;SDS011;231;48.120;11.576;2022-08-01T02:37:51;4.13;;;3.70;;
489;SDS011;231;48.120;11.576;2022-08-01T02:40:19;3.00;;;2.80;;
489;SDS011;231;48.120;11.576;2022-08-01T02:42:48;3.70;;;3.50;;
489;SDS011;231;48.120;11.576;2022-08-01T02:45:17;3.40;;;3.20;;
489;SDS011;231;48.120;11.576;2022-08-01T02:47:45;2.90;;;2.70;;
489;SDS011;231;48.120;11.576;2022-08-01T02:50:14;3.00;;;2.80;;
489;SDS011;231;48.120;11.576;2022-08-01T02:52:45;3.30;;;3.00;;
489;SDS011;231;48.120;11.576;2022-08-01T02:55:14;3.20;;;3.00;;
489;SDS011;231;48.120;11.576;2022-08-01T02:57:43;3.50;;;3.30;;
489;SDS011;231;48.120;11.576;2022-08-01T03:00:12;3.50;;;3.00;;
489;SDS011;231;48.120;11.576;2022-08-01T03:02:39;3.40;;;3.23;;
489;SDS011;231;48.120;11.576;2022-08-01T03:05:07;3.60;;;3.40;;
489;SDS011;231;48.120;11.576;2022-08-01T03:07:36;4.13;;;2.90;;
489;SDS011;231;48.120;11.576;2022-08-01T03:10:05;3.47;;;3.27;;
489;SDS011;231;48.120;11.576;2022-08-01T03:12:34;3.00;;;2.80;;
489;SDS011;231;48.120;11.576;2022-08-01T03:15:03;3.17;;;2.97;;
489;SDS011;231;48.120;11.576;2022-08-01T03:17:32;3.20;;;3.00;;
489;SDS011;231;48.120;11.576;2022-08-01T03:20:01;3.90;;;3.30;;
489;SDS011;231;48.120;11.576;2022-08-01T03:22:30;3.00;;;2.80;;
489;SDS011;231;48.120;11.576;2022-08-01T03:24:59;3.37;;;3.17;;
489;SDS011;231;48.120;11.576;2022-08-01T03:27:30;3.27;;;3.07;;
489;SDS011;231;48.120;11.576;2022-08-01T03:29:58;3.53;;;3.33;;
489;SDS011;231;48.120;11.576;2022-08-01T03:32:28;3.73;;;3.53;;
489;SDS011;231;48.120;11.576;2022-08-01T03:34:57;2.90;;;2.70;;
489;SDS011;231;48.120;11.576;2022-08-01T03:37:25;4.10;;;3.43;;
489;SDS011;231;48.120;11.576;2022-08-01T03:39:55;3.23;;;3.03;;
489;SDS011;231;48.120;11.576;2022-08-01T03:42:25;5.07;;;3.23;;
489;SDS011;231;48.120;11.576;2022-08-01T03:45:00;3.57;;;2.93;;
489;SDS011;231;48.120;11.576;2022-08-01T03:47:31;3.33;;;2.70;;
489;SDS011;231;48.120;11.576;2022-08-01T03:50:01;4.00;;;3.00;;
489;SDS011;231;48.120;11.576;2022-08-01T03:52:30;3.20;;;3.00;;
489;SDS011;231;48.120;11.576;2022-08-01T03:55:02;3.17;;;2.97;;
489;SDS011;231;48.120;11.576;2022-08-01T03:57:32;5.00;;;3.70;;
489;SDS011;231;48.120;11.576;2022-08-01T04:00:01;2.93;;;2.73;;
489;SDS011;231;48.120;11.576;2022-08-01T04:02:32;3.53;;;3.33;;
489;SDS011;231;48.120;11.576;2022-08-01T04:04:59;3.47;;;3.27;;
489;SDS011;231;48.120;11.576;2022-08-01T04:07:27;7.20;;;3.93;;
489;SDS011;231;48.120;11.576;2022-08-01T04:09:56;4.97;;;3.90;;
489;SDS011;231;48.120;11.576;2022-08-01T04:12:23;4.10;;;3.20;;
489;SDS011;231;48.120;11.576;2022-08-01T04:14:50;3.03;;;2.83;;
489;SDS011;231;48.120;11.576;2022-08-01T04:17:19;3.60;;;3.40;;
489;SDS011;231;48.120;11.576;2022-08-01T04:19:46;5.30;;;3.07;;
489;SDS011;231;48.120;11.576;2022-08-01T04:22:13;6.00;;;2.80;;
489;SDS011;231;48.120;11.576;2022-08-01T04:24:41;3.33;;;3.10;;
489;SDS011;231;48.120;11.576;2022-08-01T04:27:14;4.03;;;3.90;;
489;SDS011;231;48.120;11.576;2022-08-01T04:29:45;4.47;;;3.20;;
489;SDS011;231;48.120;11.576;2022-08-01T04:32:15;3.23;;;2.80;;
489;SDS011;231;48.120;11.576;2022-08-01T04:34:46;2.50;;;2.30;;
489;SDS011;231;48.120;11.576;2022-08-01T04:37:15;2.70;;;2.50;;
489;SDS011;231;48.120;11.576;2022-08-01T04:39:44;3.63;;;3.40;;
489;SDS011;231;48.120;11.576;2022-08-01T04:42:13;3.50;;;3.30;;
489;SDS011;231;48.120;11.576;2022-08-01T04:44:41;7.47;;;3.90;;
489;SDS011;231;48.120;11.576;2022-08-01T04:47:08;3.73;;;3.33;;
489;SDS011;231;48.120;11.576;2022-08-01T04:49:36;3.20;;;3.00;;
489;SDS011;231;48.120;11.576;2022-08-01T04:52:05;3.47;;;2.80;;
489;SDS011;231;48.120;11.576;2022-08-01T04:54:33;3.57;;;3.37;;
489;SDS011;231;48.120;11.576;2022-08-01T04:57:02;3.10;;;2.97;;
489;SDS011;231;48.120;11.576;2022-08-01T04:59:30;3.17;;;2.90;;
489;SDS011;231;48.120;11.576;2022-08-01T05:02:07;3.43;;;2.70;;
489;SDS011;231;48.120;11.576;2022-08-01T05:04:36;3.20;;;3.00;;
489;SDS011;231;48.120;11.576;2022-08-01T05:07:06;3.23;;;3.03;;
489;SDS011;231;48.120;11.576;2022-08-01T05:09:33;3.40;;;3.20;;
489;SDS011;231;48.120;11.576;2022-08-01T05:12:02;4.40;;;4.10;;
489;SDS011;231;48.120;11.576;2022-08-01T05:14:30;3.67;;;3.47;;
489;SDS011;231;48.120;11.576;2022-08-01T05:16:58;3.00;;;2.80;;
489;SDS011;231;48.120;11.576;2022-08-01T05:19:28;3.77;;;3.57;;
489;SDS011;231;48.120;11.576;2022-08-01T05:21:55;6.50;;;4.87;;
489;SDS011;231;48.120;11.576;2022-08-01T05:24:23;3.50;;;3.30;;
489;SDS011;231;48.120;11.576;2022-08-01T05:26:50;4.60;;;4.07;;
489;SDS011;231;48.120;11.576;2022-08-01T05:29:18;5.67;;;4.20;;
489;SDS011;231;48.120;11.576;2022-08-01T05:31:45;6.90;;;6.30;;
489;SDS011;231;48.120;11.576;2022-08-01T05:34:12;5.77;;;3.90;;
489;SDS011;231;48.120;11.576;2022-08-01T05:36:39;3.37;;;3.17;;
489;SDS011;231;48.120;11.576;2022-08-01T05:39:06;3.67;;;3.47;;
489;SDS011;231;48.120;11.576;2022-08-01T05:41:35;3.40;;;3.20;;
489;SDS011;231;48.120;11.576;2022-08-01T05:44:02;3.07;;;2.87;;
489;SDS011;231;48.120;11.576;2022-08-01T05:46:29;3.30;;;3.17;;
489;SDS011;231;48.120;11.576;2022-08-01T05:48:57;3.73;;;3.47;;
489;SDS011;231;48.120;11.576;2022-08-01T05:51:24;3.33;;;3.10;;
489;SDS011;231;48.120;11.576;2022-08-01T05:53:51;3.70;;;3.50;;
489;SDS011;231;48.120;11.576;2022-08-01T05:56:19;3.77;;;3.57;;
489;SDS011;231;48.120;11.576;2022-08-01T05:58:47;4.17;;;3.93;;
489;SDS011;231;48.120;11.576;2022-08-01T06:01:15;5.27;;;4.97;;
489;SDS011;231;48.120;11.576;2022-08-01T06:03:42;6.10;;;5.47;;
489;SDS011;231;48.120;11.576;2022-08-01T06:06:09;3.33;;;3.13;;
489;SDS011;231;48.120;11.576;2022-08-01T06:08:37;3.43;;;3.23;;
489;SDS011;231;48.120;11.576;2022-08-01T06:11:04;6.00;;;3.10;;
489;SDS011;231;48.120;11.576;2022-08-01T06:13:32;2.90;;;2.63;;
489;SDS011;231;48.120;11.576;2022-08-01T06:16:00;3.20;;;3.00;;
489;SDS011;231;48.120;11.576;2022-08-01T06:18:27;4.50;;;4.03;;
489;SDS011;231;48.120;11.576;2022-08-01T06:20:54;3.23;;;3.03;;
489;SDS011;231;48.120;11.576;2022-08-01T06:23:21;3.57;;;3.37;;
489;SDS011;231;48.120;11.576;2022-08-01T06:25:51;3.87;;;3.67;;
489;SDS011;231;48.120;11.576;2022-08-01T06:28:19;3.57;;;3.37;;
489;SDS011;231;48.120;11.576;2022-08-01T06:30:46;3.60;;;3.23;;
489;SDS011;231;48.120;11.576;2022-08-01T06:33:14;3.80;;;3.30;;
489;SDS011;231;48.120;11.576;2022-08-01T06:35:41;9.23;;;4.27;;
489;SDS011;231;48.120;11.576;2022-08-01T06:38:08;5.33;;;3.70;;
489;SDS011;231;48.120;11.576;2022-08-01T06:40:35;4.07;;;3.87;;
489;SDS011;231;48.120;11.576;2022-08-01T06:43:03;5.50;;;4.83;;
489;SDS011;231;48.120;11.576;2022-08-01T06:45:30;4.33;;;4.03;;
489;SDS011;231;48.120;11.576;2022-08-01T06:47:57;4.00;;;3.80;;
489;SDS011;231;48.120;11.576;2022-08-01T06:50:25;4.60;;;4.30;;
489;SDS011;231;48.120;11.576;2022-08-01T06:52:52;4.10;;;3.90;;
489;SDS011;231;48.120;11.576;2022-08-01T06:55:19;4.60;;;3.60;;
489;SDS011;231;48.120;11.576;2022-08-01T06:58:03;3.13;;;3.00;;
489;SDS011;231;48.120;11.576;2022-08-01T07:01:05;3.57;;;3.10;;
489;SDS011;231;48.120;11.576;2022-08-01T07:11:17;3.30;;;3.10;;
489;SDS011;231;48.120;11.576;2022-08-01T07:13:47;3.53;;;3.33;;
489;SDS011;231;48.120;11.576;2022-08-01T07:16:43;3.70;;;3.50;;
489;SDS011;231;48.120;11.576;2022-08-01T07:19:10;4.13;;;3.73;;
489;SDS011;231;48.120;11.576;2022-08-01T07:21:38;4.00;;;3.80;;
489;SDS011;231;48.120;11.576;2022-08-01T07:24:07;4.50;;;4.20;;
489;SDS011;231;48.120;11.576;2022-08-01T07:26:40;4.50;;;4.20;;
489;SDS011;231;48.120;11.576;2022-08-01T07:29:09;4.33;;;4.03;;
489;SDS011;231;48.120;11.576;2022-08-01T07:31:37;4.70;;;4.40;;
489;SDS011;231;48.120;11.576;2022-08-01T07:34:08;4.50;;;4.20;;
489;SDS011;231;48.120;11.576;2022-08-01T07:36:35;4.37;;;4.00;;
489;SDS011;231;48.120;11.576;2022-08-01T07:39:03;4.47;;;3.23;;
489;SDS011;231;48.120;11.576;2022-08-01T07:41:34;3.07;;;2.87;;
489;SDS011;231;48.120;11.576;2022-08-01T07:44:03;4.90;;;4.10;;
489;SDS011;231;48.120;11.576;2022-08-01T07:46:31;3.60;;;3.40;;
489;SDS011;231;48.120;11.576;2022-08-01T07:49:01;6.83;;;3.93;;
489;SDS011;231;48.120;11.576;2022-08-01T07:51:30;7.20;;;3.60;;
489;SDS011;231;48.120;11.576;2022-08-01T07:54:02;3.93;;;3.47;;
489;SDS011;231;48.120;11.576;2022-08-01T07:56:33;3.50;;;3.30;;
489;SDS011;231;48.120;11.576;2022-08-01T07:59:01;13.20;;;12.50;;
489;SDS011;231;48.120;11.576;2022-08-01T08:01:29;14.83;;;14.07;;
489;SDS011;231;48.120;11.576;2022-08-01T08:03:59;3.93;;;3.60;;
489;SDS011;231;48.120;11.576;2022-08-01T08:06:36;4.40;;;4.10;;
489;SDS011;231;48.120;11.576;2022-08-01T08:09:06;3.47;;;3.30;;
489;SDS011;231;48.120;11.576;2022-08-01T08:11:36;4.13;;;3.90;;
489;SDS011;231;48.120;11.576;2022-08-01T08:14:07;5.10;;;4.80;;
489;SDS011;231;48.120;11.576;2022-08-01T08:16:34;5.30;;;4.07;;
489;SDS011;231;48.120;11.576;2022-08-01T08:19:01;8.37;;;7.93;;
489;SDS011;231;48.120;11.576;2022-08-01T08:21:31;8.13;;;7.40;;
489;SDS011;231;48.120;11.576;2022-08-01T08:24:01;5.97;;;5.67;;
489;SDS011;231;48.120;11.576;2022-08-01T08:26:50;4.67;;;4.37;;
489;SDS011;231;48.120;11.576;2022-08-01T08:29:21;5.00;;;3.90;;
489;SDS011;231;48.120;11.576;2022-08-01T08:31:48;3.40;;;3.13;;
489;SDS011;231;48.120;11.576;2022-08-01T08:34:19;5.77;;;3.43;;
489;SDS011;231;48.120;11.576;2022-08-01T08:36:46;7.70;;;4.00;;
489;SDS011;231;48.120;11.576;2022-08-01T08:39:14;4.80;;;4.50;;
489;SDS011;231;48.120;11.576;2022-08-01T08:41:42;4.10;;;3.90;;
489;SDS011;231;48.120;11.576;2022-08-01T08:44:11;3.70;;;3.50;;
489;SDS011;231;48.120;11.576;2022-08-01T08:46:40;3.53;;;3.33;;
489;SDS011;231;48.120;11.576;2022-08-01T08:49:09;3.50;;;3.30;;
489;SDS011;231;48.120;11.576;2022-08-01T08:51:38;4.03;;;3.83;;
489;SDS011;231;48.120;11.576;2022-08-01T08:54:10;4.30;;;4.00;;
489;SDS011;231;48.120;11.576;2022-08-01T08:56:38;3.17;;;2.97;;
489;SDS011;231;48.120;11.576;2022-08-01T08:59:10;3.33;;;3.13;;
489;SDS011;231;48.120;11.576;2022-08-01T09:01:40;4.33;;;4.07;;
489;SDS011;231;48.120;11.576;2022-08-01T09:04:07;3.57;;;3.37;;
489;SDS011;231;48.120;11.576;2022-08-01T09:06:35;3.90;;;3.70;;
489;SDS011;231;48.120;11.576;2022-08-01T09:09:05;4.40;;;3.70;;
489;SDS011;231;48.120;11.576;2022-08-01T09:11:33;6.70;;;6.30;;
489;SDS011;231;48.120;11.576;2022-08-01T09:14:03;4.60;;;4.30;;
489;SDS011;231;48.120;11.576;2022-08-01T09:16:34;5.73;;;5.47;;
489;SDS011;231;48.120;11.576;2022-08-01T09:19:10;5.57;;;5.20;;
489;SDS011;231;48.120;11.576;2022-08-01T09:21:40;14.63;;;5.67;;
489;SDS011;231;48.120;11.576;2022-08-01T09:24:25;4.03;;;3.83;;
489;SDS011;231;48.120;11.576;2022-08-01T09:26:55;3.40;;;3.20;;
489;SDS011;231;48.120;11.576;2022-08-01T09:29:23;8.00;;;5.00;;
489;SDS011;231;48.120;11.576;2022-08-01T09:31:54;3.97;;;3.77;;
489;SDS011;231;48.120;11.576;2022-08-01T09:34:25;3.57;;;3.37;;
489;SDS011;231;48.120;11.576;2022-08-01T09:36:58;5.27;;;4.40;;
489;SDS011;231;48.120;11.576;2022-08-01T09:39:27;3.30;;;3.20;;
489;SDS011;231;48.120;11.576;2022-08-01T09:41:56;3.80;;;3.63;;
489;SDS011;231;48.120;11.576;2022-08-01T09:44:40;5.87;;;3.13;;
489;SDS011;231;48.120;11.576;2022-08-01T09:47:13;3.03;;;2.83;;
489;SDS011;231;48.120;11.576;2022-08-01T09:49:41;4.53;;;4.20;;
489;SDS011;231;48.120;11.576;2022-08-01T09:52:13;3.23;;;3.03;;
489;SDS011;231;48.120;11.576;2022-08-01T09:54:43;4.13;;;3.90;;
489;SDS011;231;48.120;11.576;2022-08-01T09:57:21;4.43;;;4.13;;
489;SDS011;231;48.120;11.576;2022-08-01T09:59:53;5.80;;;2.97;;
489;SDS011;231;48.120;11.576;2022-08-01T10:02:30;3.40;;;3.23;;
489;SDS011;231;48.120;11.576;2022-08-01T10:04:59;2.43;;;2.23;;
489;SDS011;231;48.120;11.576;2022-08-01T10:07:27;1.77;;;1.70;;
489;SDS011;231;48.120;11.576;2022-08-01T10:09:56;3.33;;;2.20;;
489;SDS011;231;48.120;11.576;2022-08-01T10:12:41;4.17;;;3.93;;
489;SDS011;231;48.120;11.576;2022-08-01T10:15:12;3.47;;;2.60;;
489;SDS011;231;48.120;11.576;2022-08-01T10:17:45;3.60;;;3.40;;
489;SDS011;231;48.120;11.576;2022-08-01T10:20:17;2.47;;;2.27;;
489;SDS011;231;48.120;11.576;2022-08-01T10:22:45;3.63;;;3.13;;
489;SDS011;231;48.120;11.576;2022-08-01T10:25:14;3.27;;;2.67;;
489;SDS011;231;48.120;11.576;2022-08-01T10:27:44;5.30;;;3.50;;
489;SDS011;231;48.120;11.576;2022-08-01T10:30:14;4.00;;;2.80;;
489;SDS011;231;48.120;11.576;2022-08-01T10:32:41;5.63;;;2.40;;
489;SDS011;231;48.120;11.576;2022-08-01T10:35:11;3.17;;;2.97;;
489;SDS011;231;48.120;11.576;2022-08-01T10:37:42;2.80;;;2.67;;
489;SDS011;231;48.120;11.576;2022-08-01T10:40:12;2.60;;;2.40;;
489;SDS011;231;48.120;11.576;2022-08-01T10:42:40;2.40;;;2.20;;
489;SDS011;231;48.120;11.576;2022-08-01T10:45:09;1.70;;;1.63;;
489;SDS011;231;48.120;11.576;2022-08-01T10:47:38;3.37;;;2.67;;
489;SDS011;231;48.120;11.576;2022-08-01T10:50:15;4.97;;;3.10;;
489;SDS011;231;48.120;11.576;2022-08-01T10:53:11;3.73;;;3.53;;
489;SDS011;231;48.120;11.576;2022-08-01T10:55:46;2.23;;;2.03;;
489;SDS011;231;48.120;11.576;2022-08-01T10:58:20;3.00;;;2.80;;
489;SDS011;231;48.120;11.576;2022-08-01T11:00:48;6.97;;;6.37;;
489;SDS011;231;48.120;11.576;2022-08-01T11:03:34;3.40;;;3.20;;
489;SDS011;231;48.120;11.576;2022-08-01T11:06:03;2.47;;;2.27;;
489;SDS011;231;48.120;11.576;2022-08-01T11:08:31;3.10;;;2.90;;
489;SDS011;231;48.120;11.576;2022-08-01T11:11:04;2.20;;;2.00;;
489;SDS011;231;48.120;11.576;2022-08-01T11:14:00;5.40;;;3.23;;
489;SDS011;231;48.120;11.576;2022-08-01T11:16:32;3.57;;;3.40;;
489;SDS011;231;48.120;11.576;2022-08-01T11:19:03;3.23;;;2.23;;
489;SDS011;231;48.120;11.576;2022-08-01T11:27:23;3.20;;;2.70;;
489;SDS011;231;48.120;11.576;2022-08-01T11:32:55;2.90;;;2.70;;
489;SDS011;231;48.120;11.576;2022-08-01T11:35:24;3.10;;;2.10;;
489;SDS011;231;48.120;11.576;2022-08-01T11:37:52;1.60;;;1.50;;
489;SDS011;231;48.120;11.576;2022-08-01T11:40:23;5.30;;;4.53;;
489;SDS011;231;48.120;11.576;2022-08-01T11:45:46;2.93;;;2.37;;
489;SDS011;231;48.120;11.576;2022-08-01T11:48:17;2.40;;;2.20;;
489;SDS011;231;48.120;11.576;2022-08-01T11:50:46;3.43;;;3.23;;
489;SDS011;231;48.120;11.576;2022-08-01T11:53:15;3.93;;;3.77;;
489;SDS011;231;48.120;11.576;2022-08-01T11:55:46;2.50;;;2.30;;
489;SDS011;231;48.120;11.576;2022-08-01T11:58:16;2.20;;;2.07;;
489;SDS011;231;48.120;11.576;2022-08-01T12:00:49;2.00;;;1.90;;
489;SDS011;231;48.120;11.576;2022-08-01T12:03:23;1.97;;;1.80;;
489;SDS011;231;48.120;11.576;2022-08-01T12:05:55;4.80;;;3.70;;
489;SDS011;231;48.120;11.576;2022-08-01T12:08:26;3.00;;;2.17;;
489;SDS011;231;48.120;11.576;2022-08-01T12:10:57;1.87;;;1.87;;
489;SDS011;231;48.120;11.576;2022-08-01T12:13:26;3.47;;;2.13;;
489;SDS011;231;48.120;11.576;2022-08-01T12:15:54;4.87;;;2.90;;
489;SDS011;231;48.120;11.576;2022-08-01T12:18:22;3.00;;;2.27;;
489;SDS011;231;48.120;11.576;2022-08-01T12:20:49;2.10;;;1.53;;
489;SDS011;231;48.120;11.576;2022-08-01T12:23:19;3.43;;;1.90;;
489;SDS011;231;48.120;11.576;2022-08-01T12:25:50;3.13;;;2.13;;
489;SDS011;231;48.120;11.576;2022-08-01T12:28:18;2.73;;;2.53;;
489;SDS011;231;48.120;11.576;2022-08-01T12:30:46;2.47;;;2.27;;
489;SDS011;231;48.120;11.576;2022-08-01T12:33:17;1.80;;;1.70;;
489;SDS011;231;48.120;11.576;2022-08-01T12:35:52;3.07;;;2.00;;
489;SDS011;231;48.120;11.576;2022-08-01T12:38:22;1.77;;;1.67;;
489;SDS011;231;48.120;11.576;2022-08-01T12:40:50;2.20;;;1.60;;
489;SDS011;231;48.120;11.576;2022-08-01T12:43:18;1.87;;;1.77;;
489;SDS011;231;48.120;11.576;2022-08-01T12:45:46;1.60;;;1.57;;
489;SDS011;231;48.120;11.576;2022-08-01T12:48:17;3.20;;;1.73;;
489;SDS011;231;48.120;11.576;2022-08-01T12:50:47;1.30;;;1.20;;
489;SDS011;231;48.120;11.576;2022-08-01T12:53:36;3.50;;;2.00;;
489;SDS011;231;48.120;11.576;2022-08-01T12:56:03;1.57;;;1.47;;
489;SDS011;231;48.120;11.576;2022-08-01T12:58:32;1.63;;;1.53;;
489;SDS011;231;48.120;11.576;2022-08-01T13:01:05;2.90;;;2.33;;
489;SDS011;231;48.120;11.576;2022-08-01T13:03:33;1.97;;;1.87;;
489;SDS011;231;48.120;11.576;2022-08-01T13:06:09;1.67;;;1.60;;
489;SDS011;231;48.120;11.576;2022-08-01T13:08:39;2.27;;;2.07;;
489;SDS011;231;48.120;11.576;2022-08-01T13:11:07;2.63;;;2.47;;
489;SDS011;231;48.120;11.576;2022-08-01T13:13:39;3.30;;;1.80;;
489;SDS011;231;48.120;11.576;2022-08-01T13:16:09;3.53;;;2.03;;
489;SDS011;231;48.120;11.576;2022-08-01T13:18:37;2.33;;;1.80;;
489;SDS011;231;48.120;11.576;2022-08-01T13:21:08;2.07;;;1.47;;
489;SDS011;231;48.120;11.576;2022-08-01T13:23:42;2.30;;;2.10;;
489;SDS011;231;48.120;11.576;2022-08-01T13:26:37;1.63;;;1.37;;
489;SDS011;231;48.120;11.576;2022-08-01T13:29:11;2.50;;;2.20;;
489;SDS011;231;48.120;11.576;2022-08-01T13:31:41;2.90;;;2.27;;
489;SDS011;231;48.120;11.576;2022-08-01T13:34:09;1.90;;;1.80;;
489;SDS011;231;48.120;11.576;2022-08-01T13:36:36;2.60;;;2.33;;
489;SDS011;231;48.120;11.576;2022-08-01T13:39:07;2.90;;;1.80;;
489;SDS011;231;48.120;11.576;2022-08-01T13:41:54;2.20;;;2.00;;
489;SDS011;231;48.120;11.576;2022-08-01T13:44:21;2.13;;;1.97;;
489;SDS011;231;48.120;11.576;2022-08-01T13:46:50;2.20;;;2.03;;
489;SDS011;231;48.120;11.576;2022-08-01T13:49:22;3.03;;;1.93;;
489;SDS011;231;48.120;11.576;2022-08-01T13:51:49;2.00;;;1.60;;
489;SDS011;231;48.120;11.576;2022-08-01T13:54:18;5.27;;;5.00;;
489;SDS011;231;48.120;11.576;2022-08-01T13:56:49;5.10;;;2.03;;
489;SDS011;231;48.120;11.576;2022-08-01T13:59:20;1.93;;;1.87;;
489;SDS011;231;48.120;11.576;2022-08-01T14:01:49;1.77;;;1.70;;
489;SDS011;231;48.120;11.576;2022-08-01T14:04:18;1.50;;;1.50;;
489;SDS011;231;48.120;11.576;2022-08-01T14:06:46;1.67;;;1.57;;
489;SDS011;231;48.120;11.576;2022-08-01T14:09:16;2.33;;;1.70;;
489;SDS011;231;48.120;11.576;2022-08-01T14:12:05;1.70;;;1.60;;
489;SDS011;231;48.120;11.576;2022-08-01T14:14:34;5.27;;;1.70;;
489;SDS011;231;48.120;11.576;2022-08-01T14:17:01;2.27;;;2.07;;
489;SDS011;231;48.120;11.576;2022-08-01T14:19:29;3.13;;;1.63;;
489;SDS011;231;48.120;11.576;2022-08-01T14:22:03;1.87;;;1.77;;
489;SDS011;231;48.120;11.576;2022-08-01T14:24:30;2.33;;;1.40;;
489;SDS011;231;48.120;11.576;2022-08-01T14:26:59;2.33;;;1.80;;
489;SDS011;231;48.120;11.576;2022-08-01T14:29:32;1.60;;;1.60;;
489;SDS011;231;48.120;11.576;2022-08-01T14:31:59;1.53;;;1.37;;
489;SDS011;231;48.120;11.576;2022-08-01T14:34:26;1.77;;;1.50;;
489;SDS011;231;48.120;11.576;2022-08-01T14:36:54;2.50;;;1.93;;
489;SDS011;231;48.120;11.576;2022-08-01T14:39:21;3.33;;;2.10;;
489;SDS011;231;48.120;11.576;2022-08-01T14:41:50;1.93;;;1.83;;
489;SDS011;231;48.120;11.576;2022-08-01T14:44:19;2.23;;;1.90;;
489;SDS011;231;48.120;11.576;2022-08-01T14:46:46;3.40;;;3.20;;
489;SDS011;231;48.120;11.576;2022-08-01T14:49:14;2.27;;;1.83;;
489;SDS011;231;48.120;11.576;2022-08-01T14:51:42;2.57;;;2.37;;
489;SDS011;231;48.120;11.576;2022-08-01T14:54:10;3.60;;;2.37;;
489;SDS011;231;48.120;11.576;2022-08-01T14:56:40;2.23;;;2.03;;
489;SDS011;231;48.120;11.576;2022-08-01T14:59:10;4.00;;;2.67;;
489;SDS011;231;48.120;11.576;2022-08-01T15:01:38;4.43;;;2.20;;
489;SDS011;231;48.120;11.576;2022-08-01T15:04:07;4.57;;;2.43;;
489;SDS011;231;48.120;11.576;2022-08-01T15:06:34;3.33;;;2.47;;
489;SDS011;231;48.120;11.576;2022-08-01T15:09:01;2.70;;;2.43;;
489;SDS011;231;48.120;11.576;2022-08-01T15:11:28;1.80;;;1.70;;
489;SDS011;231;48.120;11.576;2022-08-01T15:13:56;2.70;;;2.50;;
489;SDS011;231;48.120;11.576;2022-08-01T15:16:41;2.20;;;2.00;;
489;SDS011;231;48.120;11.576;2022-08-01T15:19:13;2.63;;;2.43;;
489;SDS011;231;48.120;11.576;2022-08-01T15:21:41;3.30;;;2.80;;
489;SDS011;231;48.120;11.576;2022-08-01T15:24:17;1.90;;;1.83;;
489;SDS011;231;48.120;11.576;2022-08-01T15:26:49;3.53;;;2.07;;
489;SDS011;231;48.120;11.576;2022-08-01T15:29:18;2.60;;;2.43;;
489;SDS011;231;48.120;11.576;2022-08-01T15:31:50;4.50;;;2.60;;
489;SDS011;231;48.120;11.576;2022-08-01T15:34:18;8.23;;;2.60;;
489;SDS011;231;48.120;11.576;2022-08-01T15:36:45;2.33;;;2.13;;
489;SDS011;231;48.120;11.576;2022-08-01T15:39:13;2.90;;;1.90;;
489;SDS011;231;48.120;11.576;2022-08-01T15:41:41;3.30;;;2.50;;
489;SDS011;231;48.120;11.576;2022-08-01T15:44:09;6.60;;;2.73;;
489;SDS011;231;48.120;11.576;2022-08-01T15:46:36;2.77;;;2.57;;
489;SDS011;231;48.120;11.576;2022-08-01T15:49:04;2.93;;;2.73;;
489;SDS011;231;48.120;11.576;2022-08-01T15:51:32;2.50;;;2.20;;
489;SDS011;231;48.120;11.576;2022-08-01T15:53:59;3.13;;;2.97;;
489;SDS011;231;48.120;11.576;2022-08-01T15:56:30;3.50;;;2.50;;
489;SDS011;231;48.120;11.576;2022-08-01T15:58:57;3.43;;;3.00;;
489;SDS011;231;48.120;11.576;2022-08-01T16:01:25;5.00;;;3.00;;
489;SDS011;231;48.120;11.576;2022-08-01T16:03:52;2.47;;;2.27;;
489;SDS011;231;48.120;11.576;2022-08-01T16:06:20;2.97;;;2.80;;